Time;durP1;ratioP1;P1;durP2;ratioP2;P2;SDS_P1;SDS_P2;PMS_P1;PMS_P2;Temp;Humidity;BMP_temperature;BMP_pressure;BME280_temperature;BME280_humidity;BME280_pressure;Samples;Min_cycle;Max_cycle;Signal;HPM_P1;HPM_P2
2022/12/08 00:01:07;;;;;;;;;;;9.60;99.90;;;;;;4994911;28;19922;-77
2022/12/08 00:03:33;;;;;;;;;;;9.70;99.90;;;;;;4986032;28;20174;-76
2022/12/08 00:11:30;;;;;;;;;;;9.90;99.90;;;;;;4979094;28;19937;-77
2022/12/08 00:13:56;;;;;;;;;;;10.10;99.90;;;;;;4982236;28;20045;-76
2022/12/08 00:16:22;;;;;;;;;;;10.20;99.90;;;;;;4998471;28;19956;-74
2022/12/08 00:18:48;;;;;;;;;;;10.20;99.90;;;;;;4973354;28;19914;-74
2022/12/08 00:21:14;;;;;;;;;;;10.10;99.90;;;;;;4982373;28;19950;-77
2022/12/08 00:23:39;;;;;;;;;;;10.30;99.90;;;;;;4984403;28;19910;-77
2022/12/08 00:26:06;;;;;;;;;;;10.30;99.90;;;;;;4971699;28;20375;-75
2022/12/08 00:28:32;;;;;;;;;;;10.30;99.90;;;;;;4966516;28;19911;-74
2022/12/08 00:30:57;;;;;;;;;;;10.30;99.90;;;;;;4986337;28;19914;-75
2022/12/08 00:33:23;;;;;;;;;;;10.20;99.90;;;;;;4973905;28;19942;-75
2022/12/08 00:35:49;;;;;;;;;;;10.30;99.90;;;;;;4979247;28;19992;-74
2022/12/08 00:38:15;;;;;;;;;;;10.20;99.90;;;;;;5013576;28;19917;-76
2022/12/08 00:40:45;;;;;;;;;;;10.10;99.90;;;;;;4974060;28;19929;-74
2022/12/08 00:43:11;;;;;;;;;;;10.10;99.90;;;;;;4978907;28;19910;-73
2022/12/08 00:45:40;;;;;;;;;;;10.20;99.90;;;;;;4981410;28;19918;-72
2022/12/08 00:48:06;;;;;;;;;;;10.20;99.90;;;;;;4970631;28;20614;-73
2022/12/08 00:50:31;;;;;;;;;;;10.30;99.90;;;;;;4961902;28;19914;-75
2022/12/08 00:52:57;;;;;;;;;;;10.40;99.90;;;;;;4970615;28;19915;-74
2022/12/08 00:55:22;;;;;;;;;;;10.20;99.90;;;;;;4963208;28;19914;-74
2022/12/08 00:57:48;;;;;;;;;;;10.20;99.90;;;;;;4968402;28;19929;-74
2022/12/08 01:00:13;;;;;;;;;;;10.30;99.90;;;;;;4958179;28;20575;-75
2022/12/08 01:02:39;;;;;;;;;;;10.30;99.90;;;;;;5000969;28;19965;-74
2022/12/08 01:05:05;;;;;;;;;;;10.30;99.90;;;;;;4964563;28;19917;-74
2022/12/08 01:07:30;;;;;;;;;;;10.40;99.90;;;;;;4960127;28;20447;-75
2022/12/08 01:09:56;;;;;;;;;;;10.40;99.90;;;;;;4977861;28;19985;-71
2022/12/08 01:12:22;;;;;;;;;;;10.50;99.90;;;;;;4958984;28;19997;-74
2022/12/08 01:14:48;;;;;;;;;;;10.40;99.90;;;;;;4965145;28;20415;-74
2022/12/08 01:17:13;;;;;;;;;;;10.50;99.90;;;;;;4963633;28;19963;-75
2022/12/08 01:19:39;;;;;;;;;;;10.50;99.90;;;;;;4965338;28;20396;-74
2022/12/08 01:22:04;;;;;;;;;;;10.40;99.90;;;;;;4965037;28;20402;-74
2022/12/08 01:24:30;;;;;;;;;;;10.40;99.90;;;;;;4963232;28;19915;-75
2022/12/08 01:26:56;;;;;;;;;;;10.50;99.90;;;;;;4965850;28;19914;-75
2022/12/08 01:29:21;;;;;;;;;;;10.50;99.90;;;;;;4969421;28;19994;-74
2022/12/08 01:31:47;;;;;;;;;;;10.60;99.90;;;;;;4963814;28;19910;-74
2022/12/08 01:34:12;;;;;;;;;;;10.60;99.90;;;;;;4967099;28;19996;-74
2022/12/08 01:36:38;;;;;;;;;;;10.70;99.90;;;;;;4961017;28;19918;-74
2022/12/08 01:39:06;;;;;;;;;;;10.50;99.90;;;;;;4967340;28;19914;-75
2022/12/08 01:41:33;;;;;;;;;;;10.50;99.90;;;;;;4969844;28;19960;-76
2022/12/08 01:44:00;;;;;;;;;;;10.70;99.90;;;;;;4971397;28;20586;-74
2022/12/08 01:46:27;;;;;;;;;;;10.80;99.90;;;;;;4974724;28;20367;-75
2022/12/08 01:48:55;;;;;;;;;;;10.70;99.90;;;;;;4975242;28;19919;-73
2022/12/08 01:51:21;;;;;;;;;;;10.70;99.90;;;;;;4970342;28;19993;-74
2022/12/08 01:53:47;;;;;;;;;;;10.70;99.90;;;;;;4970060;28;20365;-74
2022/12/08 01:56:17;;;;;;;;;;;10.60;99.90;;;;;;4967164;28;20116;-73
2022/12/08 01:58:46;;;;;;;;;;;10.70;99.90;;;;;;4970809;28;19922;-74
2022/12/08 02:01:11;;;;;;;;;;;10.60;99.90;;;;;;4966261;28;19918;-74
2022/12/08 02:03:42;;;;;;;;;;;10.60;99.90;;;;;;4968828;28;20142;-74
2022/12/08 02:06:07;;;;;;;;;;;10.60;99.90;;;;;;4960427;28;20281;-76
2022/12/08 02:08:34;;;;;;;;;;;10.60;99.90;;;;;;4968756;28;20402;-74
2022/12/08 02:11:00;;;;;;;;;;;10.70;99.90;;;;;;4971676;28;19916;-76
2022/12/08 02:13:26;;;;;;;;;;;10.70;99.90;;;;;;4969179;28;19922;-74
2022/12/08 02:16:10;;;;;;;;;;;10.90;99.90;;;;;;4971434;28;19914;-73
2022/12/08 02:18:41;;;;;;;;;;;10.80;99.90;;;;;;4997273;28;20616;-74
2022/12/08 02:21:17;;;;;;;;;;;10.90;99.90;;;;;;4970347;28;19916;-75
2022/12/08 02:23:50;;;;;;;;;;;10.90;99.90;;;;;;4971326;28;20017;-75
2022/12/08 02:26:27;;;;;;;;;;;10.80;99.90;;;;;;4967991;28;20387;-75
2022/12/08 02:28:55;;;;;;;;;;;11.00;99.90;;;;;;4984971;28;19918;-74
2022/12/08 02:31:33;;;;;;;;;;;11.10;99.90;;;;;;4999825;28;19914;-74
2022/12/08 02:33:59;;;;;;;;;;;10.90;99.90;;;;;;4960537;28;19918;-74
2022/12/08 02:36:28;;;;;;;;;;;10.90;99.90;;;;;;4971339;28;19936;-74
2022/12/08 02:39:00;;;;;;;;;;;11.00;99.90;;;;;;4970739;28;20410;-74
2022/12/08 02:41:44;;;;;;;;;;;11.10;99.90;;;;;;4970170;28;19997;-73
2022/12/08 02:44:18;;;;;;;;;;;10.90;99.90;;;;;;4969079;28;19914;-75
2022/12/08 02:46:50;;;;;;;;;;;11.10;99.90;;;;;;4968995;28;20324;-73
2022/12/08 02:49:16;;;;;;;;;;;11.20;99.90;;;;;;4971422;28;20406;-75
2022/12/08 02:51:41;;;;;;;;;;;11.40;99.90;;;;;;4977737;28;19910;-74
2022/12/08 02:54:07;;;;;;;;;;;11.30;99.90;;;;;;4962145;28;19921;-74
2022/12/08 02:56:41;;;;;;;;;;;11.10;99.90;;;;;;4969320;28;20420;-74
2022/12/08 02:59:07;;;;;;;;;;;11.10;99.90;;;;;;4969913;28;20359;-74
2022/12/08 03:01:32;;;;;;;;;;;11.00;99.90;;;;;;4970275;28;20364;-74
2022/12/08 03:04:10;;;;;;;;;;;11.20;99.90;;;;;;4972786;28;20379;-74
2022/12/08 03:06:35;;;;;;;;;;;11.10;99.90;;;;;;4972390;28;19921;-74
2022/12/08 03:09:11;;;;;;;;;;;11.10;99.90;;;;;;4972617;28;20283;-74
2022/12/08 03:11:47;;;;;;;;;;;11.20;99.90;;;;;;4962730;28;19915;-75
2022/12/08 03:14:15;;;;;;;;;;;11.00;99.90;;;;;;4975452;28;19924;-75
2022/12/08 03:16:41;;;;;;;;;;;10.80;99.90;;;;;;4971655;28;19921;-74
2022/12/08 03:19:07;;;;;;;;;;;11.00;99.90;;;;;;4969487;28;19918;-74
2022/12/08 03:21:33;;;;;;;;;;;10.90;99.90;;;;;;4974885;28;19914;-75
2022/12/08 03:24:00;;;;;;;;;;;10.90;99.90;;;;;;4970147;28;20317;-75
2022/12/08 03:26:30;;;;;;;;;;;11.00;99.90;;;;;;4967948;28;19918;-76
2022/12/08 03:28:56;;;;;;;;;;;11.10;99.90;;;;;;4983581;28;19910;-78
2022/12/08 03:31:24;;;;;;;;;;;11.10;99.90;;;;;;4979125;28;19925;-77
2022/12/08 03:33:51;;;;;;;;;;;11.20;99.90;;;;;;4968048;28;19930;-75
2022/12/08 03:36:17;;;;;;;;;;;11.20;99.90;;;;;;4972406;28;19918;-76
2022/12/08 03:38:44;;;;;;;;;;;11.20;99.90;;;;;;4965735;28;20382;-73
2022/12/08 03:41:19;;;;;;;;;;;11.40;99.90;;;;;;4976644;28;19925;-72
2022/12/08 03:43:55;;;;;;;;;;;11.30;99.90;;;;;;4970630;28;19938;-70
2022/12/08 03:46:23;;;;;;;;;;;11.30;99.90;;;;;;4963337;28;19973;-72
2022/12/08 03:48:48;;;;;;;;;;;11.20;99.90;;;;;;4987807;28;19918;-74
2022/12/08 03:51:14;;;;;;;;;;;11.00;99.90;;;;;;4967238;28;19925;-73
2022/12/08 03:53:40;;;;;;;;;;;11.20;99.90;;;;;;4971433;28;19918;-74
2022/12/08 03:56:26;;;;;;;;;;;11.30;99.90;;;;;;4970549;28;19925;-74
2022/12/08 03:58:52;;;;;;;;;;;11.10;99.90;;;;;;4967473;28;20359;-78
2022/12/08 04:01:18;;;;;;;;;;;11.10;99.90;;;;;;4967340;28;19929;-77
2022/12/08 04:03:43;;;;;;;;;;;11.20;99.90;;;;;;4966865;28;19910;-75
2022/12/08 04:06:09;;;;;;;;;;;11.20;99.90;;;;;;4971496;28;19917;-75
2022/12/08 04:08:34;;;;;;;;;;;10.90;99.90;;;;;;4971603;28;19915;-74
2022/12/08 04:11:00;;;;;;;;;;;10.90;99.90;;;;;;4983166;28;20426;-74
2022/12/08 04:13:25;;;;;;;;;;;10.70;99.90;;;;;;4973029;28;19918;-75
2022/12/08 04:15:51;;;;;;;;;;;10.60;99.90;;;;;;4968926;28;20061;-75
2022/12/08 04:18:16;;;;;;;;;;;10.70;99.90;;;;;;4974982;28;19910;-77
2022/12/08 04:20:43;;;;;;;;;;;10.40;99.90;;;;;;4972910;28;19917;-76
2022/12/08 04:23:08;;;;;;;;;;;10.30;99.90;;;;;;4975804;28;20210;-75
2022/12/08 04:25:34;;;;;;;;;;;10.30;99.90;;;;;;4964120;28;19921;-74
2022/12/08 04:27:59;;;;;;;;;;;10.50;99.90;;;;;;4965149;28;20070;-75
2022/12/08 04:30:25;;;;;;;;;;;10.70;99.90;;;;;;4966986;28;20002;-74
2022/12/08 04:32:50;;;;;;;;;;;10.90;99.90;;;;;;4972440;28;19914;-75
2022/12/08 04:35:16;;;;;;;;;;;10.80;99.90;;;;;;4972980;28;19917;-74
2022/12/08 04:37:43;;;;;;;;;;;10.90;99.90;;;;;;4968509;28;19910;-74
2022/12/08 04:40:09;;;;;;;;;;;10.70;99.90;;;;;;4964618;28;20001;-75
2022/12/08 04:42:34;;;;;;;;;;;10.90;99.90;;;;;;4966137;28;19941;-74
2022/12/08 04:44:59;;;;;;;;;;;10.80;99.90;;;;;;4981697;28;19960;-75
2022/12/08 04:47:25;;;;;;;;;;;10.80;99.90;;;;;;4959766;28;19914;-74
2022/12/08 04:49:51;;;;;;;;;;;10.70;99.90;;;;;;4986584;28;19911;-74
2022/12/08 04:58:23;;;;;;;;;;;10.80;99.90;;;;;;4971334;28;20676;-76
2022/12/08 05:00:48;;;;;;;;;;;10.50;99.90;;;;;;4972124;28;19926;-76
2022/12/08 05:03:14;;;;;;;;;;;10.30;99.90;;;;;;4987853;28;19918;-74
2022/12/08 05:05:40;;;;;;;;;;;10.10;99.90;;;;;;4985329;28;19978;-79
2022/12/08 05:08:06;;;;;;;;;;;9.90;99.90;;;;;;4976532;28;19977;-77
2022/12/08 05:10:31;;;;;;;;;;;9.60;99.90;;;;;;4978283;28;20307;-75
2022/12/08 05:12:58;;;;;;;;;;;9.70;99.90;;;;;;4967360;28;19925;-75
2022/12/08 05:15:23;;;;;;;;;;;9.60;99.90;;;;;;4966423;28;19914;-77
2022/12/08 05:17:49;;;;;;;;;;;9.60;99.90;;;;;;4974452;28;19928;-76
2022/12/08 05:20:14;;;;;;;;;;;9.70;99.90;;;;;;4982423;28;20402;-77
2022/12/08 05:22:40;;;;;;;;;;;9.70;99.90;;;;;;4978624;28;19914;-76
2022/12/08 05:25:05;;;;;;;;;;;9.80;99.90;;;;;;4981496;28;19933;-76
2022/12/08 05:27:31;;;;;;;;;;;9.60;99.90;;;;;;4970180;28;20335;-78
2022/12/08 05:29:56;;;;;;;;;;;9.60;99.90;;;;;;4985468;28;19910;-74
2022/12/08 05:32:22;;;;;;;;;;;9.50;99.90;;;;;;4971575;28;19914;-76
2022/12/08 05:34:48;;;;;;;;;;;9.60;99.90;;;;;;4968916;28;19930;-76
2022/12/08 05:37:13;;;;;;;;;;;9.70;99.90;;;;;;4964991;28;19918;-75
2022/12/08 05:39:39;;;;;;;;;;;9.70;99.90;;;;;;4967214;28;19954;-75
2022/12/08 05:42:05;;;;;;;;;;;9.80;99.90;;;;;;4964351;28;20161;-73
2022/12/08 05:44:30;;;;;;;;;;;9.80;99.90;;;;;;4981295;28;20313;-74
2022/12/08 05:46:56;;;;;;;;;;;9.70;99.90;;;;;;4974826;28;20474;-72
2022/12/08 05:49:21;;;;;;;;;;;9.60;99.90;;;;;;4965317;28;19921;-74
2022/12/08 05:51:47;;;;;;;;;;;9.50;99.90;;;;;;4970135;28;19928;-73
2022/12/08 05:54:13;;;;;;;;;;;9.70;99.90;;;;;;4976676;28;19921;-73
2022/12/08 05:56:38;;;;;;;;;;;9.60;99.90;;;;;;4969126;28;19917;-74
2022/12/08 05:59:07;;;;;;;;;;;9.70;99.90;;;;;;4974767;28;20013;-73
2022/12/08 06:01:33;;;;;;;;;;;9.80;99.90;;;;;;4974234;28;19964;-73
2022/12/08 06:04:00;;;;;;;;;;;9.70;99.90;;;;;;4973103;28;19937;-73
2022/12/08 06:06:26;;;;;;;;;;;9.60;99.90;;;;;;4972308;28;19914;-72
2022/12/08 06:08:51;;;;;;;;;;;9.50;99.90;;;;;;4966283;28;20026;-73
2022/12/08 06:11:19;;;;;;;;;;;9.40;99.90;;;;;;4979327;28;19977;-72
2022/12/08 06:13:44;;;;;;;;;;;9.40;99.90;;;;;;4968288;28;19996;-73
2022/12/08 06:16:10;;;;;;;;;;;9.40;99.90;;;;;;4984555;28;20141;-72
2022/12/08 06:18:35;;;;;;;;;;;9.30;99.90;;;;;;4975914;28;19921;-73
2022/12/08 06:21:02;;;;;;;;;;;9.40;99.90;;;;;;4987910;28;19970;-72
2022/12/08 06:23:28;;;;;;;;;;;9.30;99.90;;;;;;4984062;28;19910;-74
2022/12/08 06:25:53;;;;;;;;;;;9.30;99.90;;;;;;4966764;28;20391;-73
2022/12/08 06:28:19;;;;;;;;;;;9.30;99.90;;;;;;4979351;28;20012;-72
2022/12/08 06:30:44;;;;;;;;;;;9.20;99.90;;;;;;4982407;28;19922;-72
2022/12/08 06:33:10;;;;;;;;;;;9.10;99.90;;;;;;4984009;28;20026;-71
2022/12/08 06:35:35;;;;;;;;;;;8.90;99.90;;;;;;4979250;28;19990;-73
2022/12/08 06:38:01;;;;;;;;;;;8.80;99.90;;;;;;4970616;28;20277;-74
2022/12/08 06:40:26;;;;;;;;;;;8.70;99.90;;;;;;4968295;28;19918;-75
2022/12/08 06:42:52;;;;;;;;;;;8.50;99.90;;;;;;4982514;28;19911;-74
2022/12/08 06:45:17;;;;;;;;;;;8.40;99.90;;;;;;4969792;28;20016;-72
2022/12/08 06:47:43;;;;;;;;;;;8.40;99.90;;;;;;4986304;28;19929;-74
2022/12/08 06:50:09;;;;;;;;;;;8.30;99.90;;;;;;4965576;28;20624;-73
2022/12/08 06:52:35;;;;;;;;;;;8.30;99.90;;;;;;4974753;28;20651;-75
2022/12/08 06:55:00;;;;;;;;;;;8.30;99.90;;;;;;4965454;28;19918;-73
2022/12/08 06:57:26;;;;;;;;;;;8.20;99.90;;;;;;4969964;28;19910;-73
2022/12/08 06:59:51;;;;;;;;;;;7.90;99.90;;;;;;4971340;28;20375;-73
2022/12/08 07:02:17;;;;;;;;;;;8.00;99.90;;;;;;4991509;28;19957;-73
2022/12/08 07:04:42;;;;;;;;;;;8.00;99.90;;;;;;4969201;28;19918;-72
2022/12/08 07:07:08;;;;;;;;;;;8.10;99.90;;;;;;4975188;28;19933;-73
2022/12/08 07:09:33;;;;;;;;;;;8.20;99.90;;;;;;4962882;28;20407;-73
2022/12/08 07:11:59;;;;;;;;;;;8.40;99.90;;;;;;4975805;28;20005;-73
2022/12/08 07:14:24;;;;;;;;;;;8.40;99.90;;;;;;4973164;28;19996;-75
2022/12/08 07:16:51;;;;;;;;;;;8.50;99.90;;;;;;4963817;28;19921;-73
2022/12/08 07:19:16;;;;;;;;;;;8.50;99.90;;;;;;4966352;28;19909;-73
2022/12/08 07:21:42;;;;;;;;;;;8.70;99.90;;;;;;4977818;28;19917;-73
2022/12/08 07:24:07;;;;;;;;;;;8.70;99.90;;;;;;4991238;28;20099;-72
2022/12/08 07:26:33;;;;;;;;;;;8.70;99.90;;;;;;4971385;28;19938;-72
2022/12/08 07:28:59;;;;;;;;;;;8.80;99.90;;;;;;4980240;28;19933;-73
2022/12/08 07:31:25;;;;;;;;;;;9.10;99.90;;;;;;4957918;28;20403;-75
2022/12/08 07:33:51;;;;;;;;;;;9.00;99.90;;;;;;4970286;28;19965;-77
2022/12/08 07:36:16;;;;;;;;;;;9.20;99.90;;;;;;4976088;28;20150;-75
2022/12/08 07:38:42;;;;;;;;;;;9.30;99.90;;;;;;4968994;28;20160;-76
2022/12/08 07:41:14;;;;;;;;;;;9.40;99.90;;;;;;4976443;28;19917;-75
2022/12/08 07:43:40;;;;;;;;;;;9.50;99.90;;;;;;4977365;28;19920;-75
2022/12/08 07:46:06;;;;;;;;;;;9.50;99.90;;;;;;4969940;28;19911;-75
2022/12/08 07:48:32;;;;;;;;;;;9.30;99.90;;;;;;4984776;28;20000;-74
2022/12/08 07:51:02;;;;;;;;;;;9.40;99.90;;;;;;5009992;28;19911;-75
2022/12/08 07:53:28;;;;;;;;;;;9.50;99.90;;;;;;4973308;28;19974;-78
2022/12/08 07:55:53;;;;;;;;;;;9.50;99.90;;;;;;5014722;28;19956;-80
2022/12/08 07:58:19;;;;;;;;;;;9.40;99.90;;;;;;4968062;28;20021;-77
2022/12/08 08:00:44;;;;;;;;;;;9.50;99.90;;;;;;4972116;28;19918;-77
2022/12/08 08:03:10;;;;;;;;;;;9.60;99.90;;;;;;4975106;28;20190;-78
2022/12/08 08:05:35;;;;;;;;;;;9.40;99.90;;;;;;4965593;28;20331;-77
2022/12/08 08:08:01;;;;;;;;;;;9.30;99.90;;;;;;4967826;28;19910;-77
2022/12/08 08:10:27;;;;;;;;;;;9.30;99.90;;;;;;4976720;28;20319;-79
2022/12/08 08:12:52;;;;;;;;;;;9.40;99.90;;;;;;4971011;28;19914;-77
2022/12/08 08:15:19;;;;;;;;;;;9.50;99.90;;;;;;4971694;28;19914;-76
2022/12/08 08:17:47;;;;;;;;;;;9.50;99.90;;;;;;4966499;28;19910;-79
2022/12/08 08:20:13;;;;;;;;;;;9.50;99.90;;;;;;4972702;28;20454;-78
2022/12/08 08:22:39;;;;;;;;;;;9.50;99.90;;;;;;4972409;28;19956;-77
2022/12/08 08:25:04;;;;;;;;;;;9.60;99.90;;;;;;4977253;28;19933;-77
2022/12/08 08:27:30;;;;;;;;;;;9.60;99.90;;;;;;4970267;28;20320;-79
2022/12/08 08:29:55;;;;;;;;;;;9.70;99.90;;;;;;4989701;28;19910;-80
2022/12/08 08:32:21;;;;;;;;;;;9.80;99.90;;;;;;4979727;28;20123;-76
2022/12/08 08:34:46;;;;;;;;;;;9.60;99.90;;;;;;4974052;28;19918;-78
2022/12/08 08:37:12;;;;;;;;;;;9.70;99.90;;;;;;4979960;28;20358;-78
2022/12/08 08:39:37;;;;;;;;;;;9.80;99.90;;;;;;4975401;28;19917;-75
2022/12/08 08:42:03;;;;;;;;;;;9.70;99.90;;;;;;4977935;28;19914;-76
2022/12/08 08:44:28;;;;;;;;;;;9.70;99.90;;;;;;4981842;28;20423;-81
2022/12/08 08:46:54;;;;;;;;;;;9.60;99.90;;;;;;4969699;28;19940;-78
2022/12/08 08:49:20;;;;;;;;;;;9.70;99.90;;;;;;4981239;28;19918;-79
2022/12/08 08:51:46;;;;;;;;;;;9.70;99.90;;;;;;4981653;28;19965;-77
2022/12/08 08:54:11;;;;;;;;;;;9.60;99.90;;;;;;4992045;28;19914;-77
2022/12/08 08:56:37;;;;;;;;;;;9.70;99.90;;;;;;4980781;28;20388;-78
2022/12/08 08:59:02;;;;;;;;;;;9.80;99.90;;;;;;4977886;28;19921;-79
2022/12/08 09:01:29;;;;;;;;;;;9.80;99.90;;;;;;4977954;28;20017;-78
2022/12/08 09:03:55;;;;;;;;;;;9.80;99.90;;;;;;4962943;28;19956;-77
2022/12/08 09:06:21;;;;;;;;;;;10.00;99.90;;;;;;4991211;28;19918;-75
2022/12/08 09:08:47;;;;;;;;;;;9.90;99.90;;;;;;4975878;28;19914;-75
2022/12/08 09:11:12;;;;;;;;;;;10.00;99.90;;;;;;4971925;28;19984;-78
2022/12/08 09:13:38;;;;;;;;;;;10.00;99.90;;;;;;4981064;28;19921;-79
2022/12/08 09:16:05;;;;;;;;;;;10.10;99.90;;;;;;4971500;28;20595;-76
2022/12/08 09:18:30;;;;;;;;;;;9.80;99.90;;;;;;4966392;28;19917;-77
2022/12/08 09:20:56;;;;;;;;;;;9.70;99.90;;;;;;4971028;28;19910;-76
2022/12/08 09:23:21;;;;;;;;;;;9.50;99.90;;;;;;4974445;28;19910;-78
2022/12/08 09:25:47;;;;;;;;;;;9.40;99.90;;;;;;4972926;28;19973;-76
2022/12/08 09:28:13;;;;;;;;;;;9.40;99.90;;;;;;4975335;28;19938;-77
2022/12/08 09:30:39;;;;;;;;;;;9.30;99.90;;;;;;4962879;28;19910;-76
2022/12/08 09:33:04;;;;;;;;;;;9.20;99.90;;;;;;4969551;28;19914;-75
2022/12/08 09:35:30;;;;;;;;;;;9.10;99.90;;;;;;4968830;28;19910;-75
2022/12/08 09:37:56;;;;;;;;;;;9.00;99.90;;;;;;4973923;28;19965;-78
2022/12/08 09:40:22;;;;;;;;;;;8.90;99.90;;;;;;4977485;28;19950;-76
2022/12/08 09:42:50;;;;;;;;;;;9.00;99.90;;;;;;4975380;28;19918;-78
2022/12/08 09:45:16;;;;;;;;;;;8.90;99.90;;;;;;4975187;28;19910;-77
2022/12/08 09:47:47;;;;;;;;;;;8.90;99.90;;;;;;4972278;28;19910;-75
2022/12/08 09:50:39;;;;;;;;;;;9.00;99.90;;;;;;4977855;28;19910;-78
2022/12/08 09:53:18;;;;;;;;;;;9.00;99.90;;;;;;4973965;28;19914;-76
2022/12/08 09:55:48;;;;;;;;;;;9.00;99.90;;;;;;4968242;28;19921;-77
2022/12/08 09:58:24;;;;;;;;;;;9.20;99.90;;;;;;4981662;28;19914;-77
2022/12/08 10:00:49;;;;;;;;;;;9.00;99.90;;;;;;4976136;28;19971;-77
2022/12/08 10:03:15;;;;;;;;;;;8.90;99.90;;;;;;4981826;28;20162;-77
2022/12/08 10:05:45;;;;;;;;;;;8.90;99.90;;;;;;4976115;28;19917;-77
2022/12/08 10:08:19;;;;;;;;;;;8.90;99.90;;;;;;4970468;28;19957;-75
2022/12/08 10:11:05;;;;;;;;;;;8.90;99.90;;;;;;4977252;28;19914;-77
2022/12/08 10:13:37;;;;;;;;;;;8.80;99.90;;;;;;4966734;28;19921;-75
2022/12/08 10:16:11;;;;;;;;;;;8.90;99.90;;;;;;4975408;28;20016;-78
2022/12/08 10:18:36;;;;;;;;;;;9.10;99.90;;;;;;4968054;28;19953;-79
2022/12/08 10:21:11;;;;;;;;;;;9.50;99.90;;;;;;4975735;28;19957;-77
2022/12/08 10:23:38;;;;;;;;;;;9.60;99.90;;;;;;4969557;28;20005;-78
2022/12/08 10:26:05;;;;;;;;;;;9.60;99.90;;;;;;4957031;28;19915;-78
2022/12/08 10:28:31;;;;;;;;;;;9.80;99.90;;;;;;4968814;28;20279;-77
2022/12/08 10:30:57;;;;;;;;;;;9.70;99.90;;;;;;4984935;28;20019;-75
2022/12/08 10:33:22;;;;;;;;;;;9.90;99.90;;;;;;4967192;28;20416;-74
2022/12/08 10:35:50;;;;;;;;;;;9.90;99.90;;;;;;4972480;28;20330;-74
2022/12/08 10:38:21;;;;;;;;;;;10.00;99.90;;;;;;4969938;28;19910;-79
2022/12/08 10:40:47;;;;;;;;;;;10.20;99.90;;;;;;4982102;28;20388;-76
2022/12/08 10:43:23;;;;;;;;;;;10.20;99.90;;;;;;4969306;28;19910;-75
2022/12/08 10:45:50;;;;;;;;;;;9.50;99.90;;;;;;4970813;28;20155;-74
2022/12/08 10:48:15;;;;;;;;;;;9.60;99.90;;;;;;4965175;28;19934;-75
2022/12/08 10:50:46;;;;;;;;;;;9.80;99.90;;;;;;4995888;28;20395;-78
2022/12/08 10:53:13;;;;;;;;;;;9.90;99.90;;;;;;4973825;28;19962;-75
2022/12/08 10:55:40;;;;;;;;;;;10.00;99.90;;;;;;4966960;28;19917;-77
2022/12/08 10:58:22;;;;;;;;;;;9.90;99.90;;;;;;4974216;28;19925;-77
2022/12/08 11:00:49;;;;;;;;;;;10.00;99.90;;;;;;4973909;28;19926;-75
2022/12/08 11:03:21;;;;;;;;;;;9.80;99.90;;;;;;4979531;28;19918;-77
2022/12/08 11:05:46;;;;;;;;;;;9.90;99.90;;;;;;4966361;28;19977;-75
2022/12/08 11:08:14;;;;;;;;;;;10.00;99.90;;;;;;4972623;28;19910;-74
2022/12/08 11:10:44;;;;;;;;;;;10.20;99.90;;;;;;4998235;28;19933;-75
2022/12/08 11:13:19;;;;;;;;;;;10.10;99.90;;;;;;4974913;28;20293;-74
2022/12/08 11:15:45;;;;;;;;;;;10.20;99.90;;;;;;4971104;28;19937;-76
2022/12/08 11:18:21;;;;;;;;;;;10.10;99.90;;;;;;4970429;28;20008;-76
2022/12/08 11:20:54;;;;;;;;;;;10.20;99.90;;;;;;4968738;28;19918;-75
2022/12/08 11:23:22;;;;;;;;;;;10.20;99.90;;;;;;4970808;28;19910;-75
2022/12/08 11:25:48;;;;;;;;;;;10.20;99.90;;;;;;4976475;28;20002;-75
2022/12/08 11:28:15;;;;;;;;;;;10.30;99.90;;;;;;4983127;28;20290;-75
2022/12/08 11:30:42;;;;;;;;;;;10.30;99.90;;;;;;4969643;28;19914;-75
2022/12/08 11:33:24;;;;;;;;;;;10.20;99.90;;;;;;4969644;28;19977;-74
2022/12/08 11:36:02;;;;;;;;;;;10.30;99.90;;;;;;4972895;28;19945;-74
2022/12/08 11:38:28;;;;;;;;;;;10.30;99.90;;;;;;4958215;28;19917;-74
2022/12/08 11:41:08;;;;;;;;;;;10.30;99.90;;;;;;4959618;28;19949;-75
2022/12/08 11:43:33;;;;;;;;;;;10.10;99.90;;;;;;4968929;28;19917;-75
2022/12/08 11:46:00;;;;;;;;;;;9.90;99.90;;;;;;5006776;28;19914;-74
2022/12/08 11:48:35;;;;;;;;;;;9.80;99.90;;;;;;4989618;28;19910;-75
2022/12/08 11:51:05;;;;;;;;;;;9.80;99.90;;;;;;4962534;28;19910;-76
2022/12/08 11:53:37;;;;;;;;;;;9.80;99.90;;;;;;4976537;28;19996;-75
2022/12/08 11:56:07;;;;;;;;;;;10.00;99.90;;;;;;4974310;28;19911;-77
2022/12/08 11:58:44;;;;;;;;;;;10.10;99.90;;;;;;4977961;28;20403;-74
2022/12/08 12:01:20;;;;;;;;;;;9.80;99.90;;;;;;4964513;28;19965;-75
2022/12/08 12:03:53;;;;;;;;;;;9.90;99.90;;;;;;4975108;28;19914;-75
2022/12/08 12:06:34;;;;;;;;;;;9.80;99.90;;;;;;4986941;28;19926;-74
2022/12/08 12:08:59;;;;;;;;;;;9.70;99.90;;;;;;4981819;28;20530;-75
2022/12/08 12:14:38;;;;;;;;;;;9.70;99.90;;;;;;4972705;28;19945;-77
2022/12/08 12:17:04;;;;;;;;;;;9.90;99.90;;;;;;4965766;28;20281;-73
2022/12/08 12:19:34;;;;;;;;;;;9.70;99.90;;;;;;4971683;28;19918;-75
2022/12/08 12:22:05;;;;;;;;;;;9.70;99.90;;;;;;4967154;28;19933;-77
2022/12/08 12:24:32;;;;;;;;;;;9.80;99.90;;;;;;4969476;28;19924;-75
2022/12/08 12:27:00;;;;;;;;;;;9.90;99.90;;;;;;4977277;28;20008;-75
2022/12/08 12:29:28;;;;;;;;;;;9.80;99.90;;;;;;4977844;28;19910;-76
2022/12/08 12:31:57;;;;;;;;;;;9.90;99.90;;;;;;4967754;28;20000;-75
2022/12/08 12:34:24;;;;;;;;;;;10.00;99.90;;;;;;4968755;28;19914;-76
2022/12/08 12:36:54;;;;;;;;;;;9.80;99.90;;;;;;4974725;28;20307;-74
2022/12/08 12:39:22;;;;;;;;;;;9.70;99.90;;;;;;4966358;28;19910;-74
2022/12/08 12:41:50;;;;;;;;;;;9.70;99.90;;;;;;4972179;28;19918;-75
2022/12/08 12:44:16;;;;;;;;;;;9.80;99.90;;;;;;4976643;28;19918;-77
2022/12/08 12:46:47;;;;;;;;;;;9.80;99.90;;;;;;4971959;28;19910;-74
2022/12/08 12:49:32;;;;;;;;;;;9.90;99.90;;;;;;4965935;28;19933;-75
2022/12/08 12:51:57;;;;;;;;;;;10.00;99.90;;;;;;4970864;28;19921;-74
2022/12/08 12:54:24;;;;;;;;;;;10.20;99.90;;;;;;4967295;28;19914;-75
2022/12/08 12:56:53;;;;;;;;;;;10.10;99.90;;;;;;4961864;28;19937;-76
2022/12/08 12:59:28;;;;;;;;;;;10.00;99.90;;;;;;4971448;28;19922;-77
2022/12/08 13:01:54;;;;;;;;;;;10.10;99.90;;;;;;4999874;28;19922;-75
2022/12/08 13:04:27;;;;;;;;;;;10.00;99.90;;;;;;4973100;28;19910;-75
2022/12/08 13:06:53;;;;;;;;;;;10.00;99.90;;;;;;4969376;28;20402;-75
2022/12/08 13:09:20;;;;;;;;;;;10.10;99.90;;;;;;4968928;28;19910;-75
2022/12/08 13:11:48;;;;;;;;;;;10.00;99.90;;;;;;4970431;28;19921;-76
2022/12/08 13:14:27;;;;;;;;;;;10.20;99.90;;;;;;4968076;28;20276;-74
2022/12/08 13:16:57;;;;;;;;;;;10.10;99.90;;;;;;4971064;28;20127;-75
2022/12/08 13:19:24;;;;;;;;;;;10.00;99.90;;;;;;4977237;28;19983;-74
2022/12/08 13:21:49;;;;;;;;;;;10.00;99.90;;;;;;4966883;28;20020;-74
2022/12/08 13:24:23;;;;;;;;;;;9.90;99.90;;;;;;4973334;28;19974;-74
2022/12/08 13:26:49;;;;;;;;;;;9.90;99.90;;;;;;4970644;28;20264;-75
2022/12/08 13:29:24;;;;;;;;;;;9.90;99.90;;;;;;4970240;28;19997;-74
2022/12/08 13:31:49;;;;;;;;;;;9.90;99.90;;;;;;4975598;28;19924;-75
2022/12/08 13:34:30;;;;;;;;;;;9.80;99.90;;;;;;4975994;28;19973;-76
2022/12/08 13:36:56;;;;;;;;;;;9.80;99.90;;;;;;4977526;28;19914;-77
2022/12/08 13:39:25;;;;;;;;;;;9.70;99.90;;;;;;4979965;28;20308;-75
2022/12/08 13:41:56;;;;;;;;;;;9.60;99.90;;;;;;4971230;28;19946;-74
2022/12/08 13:44:22;;;;;;;;;;;9.60;99.90;;;;;;4979673;28;19919;-75
2022/12/08 13:46:53;;;;;;;;;;;9.50;99.90;;;;;;4973758;28;20125;-74
2022/12/08 13:49:23;;;;;;;;;;;9.40;99.90;;;;;;4979207;28;19910;-75
2022/12/08 13:51:50;;;;;;;;;;;9.30;99.90;;;;;;4971769;28;20392;-74
2022/12/08 13:54:15;;;;;;;;;;;9.40;99.90;;;;;;4971249;28;20030;-76
2022/12/08 13:56:42;;;;;;;;;;;9.40;99.90;;;;;;4973923;28;19993;-75
2022/12/08 13:59:28;;;;;;;;;;;9.50;99.90;;;;;;4978749;28;19910;-75
2022/12/08 14:01:55;;;;;;;;;;;9.40;99.90;;;;;;4984899;28;19917;-75
2022/12/08 14:04:21;;;;;;;;;;;9.50;99.90;;;;;;4990699;28;19910;-76
2022/12/08 14:07:00;;;;;;;;;;;9.50;99.90;;;;;;4992296;28;20001;-75
2022/12/08 14:09:27;;;;;;;;;;;9.60;99.90;;;;;;4983592;28;19926;-77
2022/12/08 14:12:11;;;;;;;;;;;9.70;99.90;;;;;;4993042;28;19973;-75
2022/12/08 14:14:41;;;;;;;;;;;9.70;99.90;;;;;;4967765;28;19941;-76
2022/12/08 14:17:17;;;;;;;;;;;9.60;99.90;;;;;;4972011;28;19918;-75
2022/12/08 14:19:44;;;;;;;;;;;9.50;99.90;;;;;;4977968;28;20352;-75
2022/12/08 14:22:16;;;;;;;;;;;9.70;99.90;;;;;;4972967;28;20467;-76
2022/12/08 14:24:45;;;;;;;;;;;9.70;99.90;;;;;;4973834;28;19910;-76
2022/12/08 14:27:14;;;;;;;;;;;9.60;99.90;;;;;;4974485;28;19914;-74
2022/12/08 14:29:53;;;;;;;;;;;9.70;99.90;;;;;;4974406;28;20620;-75
2022/12/08 14:32:25;;;;;;;;;;;9.60;99.90;;;;;;4975349;28;19911;-76
2022/12/08 14:34:53;;;;;;;;;;;9.70;99.90;;;;;;4971873;28;20638;-77
2022/12/08 14:37:19;;;;;;;;;;;9.60;99.90;;;;;;4966641;28;19965;-77
2022/12/08 14:39:45;;;;;;;;;;;9.40;99.90;;;;;;4969984;28;20016;-75
2022/12/08 14:42:19;;;;;;;;;;;9.30;99.90;;;;;;4973677;28;19914;-75